Soaring Guidance
Issued by NWS Reno, NV

Home | Current Version | Previous Version | Text Only | Print | Product List | Glossary On
Versions: 1 2 3 4 5 6 7 8 9 10 11 12 13 14 15 16
000
UXUS97 KREV 291346
SRGREV

SOARING FORECAST
NATIONAL WEATHER SERVICE - RENO NV
700 AM PDT WED JUL 29 2015

THIS SOARING FORECAST IS FOR THE EASTERN SIERRA AND WESTERN NEVADA
WITH SPECIFIC INDICES FOR THE GREATER RENO AREA.

THIS FORECAST IS PREPARED DAILY BY 700 AM AND IS NOT UPDATED.

FOR CURRENT FLIGHT CONDITIONS...FORECASTS...AND ADVISORIES...ACCESS
YOUR LOCAL BRIEFING OUTLET OR FLIGHT SERVICE STATION.

*******************************************************************
FORECASTED LOCAL INDICES FOR RENO:        TODAY     YESTERDAY
FORECASTED MAX TEMP AT RENO (DEG F).....     95          85
FORECASTED TRIGGER TEMPERATURE (DEG F)..     77          68
   EXCEEDED YESTERDAY BY 955 AM PDT
FORECASTED MAXIMUM ALTITUDE (FT MSL)....  15800       14400
FORECASTED SOARING INDEX (FPM)..........    894         702
FORECASTED K-INDEX.........VALID 18Z....      3           2
FORECASTED K-INDEX.........VALID 00Z....      8           6
FORECASTED LIFTED INDEX....VALID 18Z....     10          13
FORECASTED LIFTED INDEX....VALID 00Z....      7          10

AFTERNOON WINDS ALOFT FORECAST
MSL (FT) WIND/TEMP
9000  9900/+18
10000 9900/+15
12000 9900/+09
14000 9902/+03
16000 9904/-02
18000 2109/-08
24000 2108/-21
30000 2113/-37
34000 2322/-46
39000 2229/-56

SLIDE MOUNTAIN DATA:
     DATE       TIME     TEMP  DEWPT   RH         WIND (MPH)
                        (F)   (F)           | DIR  SPEED GUST
2015-07-29    05:50      51    22     20    | 104   13   18
2015-07-29    05:30      51    21     19    | 098   12   18
2015-07-29    05:20      50    21     19    | 091   16   20
2015-07-29    05:00      50    21     20    | 095   16   21

RENO TAF FORECAST:
KRNO 291120Z 2912/3012 VRB03KT P6SM SKC
     FM291800 10008KT P6SM SKC
     FM300200 VRB04KT P6SM SKC

CARSON CITY TAF FORECAST:
KCXP 291120Z 2912/3012 05006KT P6SM SKC
     FM291600 07008G15KT P6SM SKC
     FM300400 VRB03KT P6SM SKC

OUTLOOK FOR THE RENO-CARSON CITY-MINDEN AREA:
.THURSDAY...SUNNY. HIGHS 95 TO 100. LIGHT WINDS BECOMING EAST
AROUND 10 MPH IN THE AFTERNOON.

SUNRISE AND SUNSET
JULY 29 2015..........SUNRISE   556 AM PDT   SUNSET   815 PM PDT
JULY 30 2015..........SUNRISE   557 AM PDT   SUNSET   814 PM PDT


USA.gov is the U.S. government's official web portal to all federal, state and local government web resources and services.